createdAt,value
2022-08-06T00:00:03.161Z,3.40
2022-08-06T00:02:29.295Z,3.50
2022-08-06T00:05:01.321Z,3.70
2022-08-06T00:07:45.073Z,3.50
2022-08-06T00:10:19.575Z,3.90
2022-08-06T00:13:02.062Z,3.30
2022-08-06T00:16:10.666Z,4.30
2022-08-06T00:18:20.964Z,4.00
2022-08-06T00:20:50.508Z,3.50
2022-08-06T00:23:18.850Z,3.80
2022-08-06T00:25:53.372Z,3.30
2022-08-06T00:28:30.928Z,3.60
2022-08-06T00:31:05.723Z,3.40
2022-08-06T00:33:44.223Z,3.40
2022-08-06T00:36:18.950Z,3.70
2022-08-06T00:38:53.573Z,3.30
2022-08-06T00:41:22.501Z,3.50
2022-08-06T00:43:49.613Z,3.20
2022-08-06T00:46:16.917Z,3.70
2022-08-06T00:48:53.928Z,3.70
2022-08-06T00:51:23.352Z,3.30
2022-08-06T00:53:57.795Z,3.60
2022-08-06T00:56:28.243Z,3.10
2022-08-06T00:59:01.151Z,3.20
2022-08-06T01:01:50.960Z,3.60
2022-08-06T01:04:19.782Z,3.50
2022-08-06T01:06:57.727Z,3.30
2022-08-06T01:09:26.887Z,3.60
2022-08-06T01:11:59.371Z,3.60
2022-08-06T01:14:38.249Z,3.60
2022-08-06T01:17:24.741Z,3.30
2022-08-06T01:21:59.418Z,3.00
2022-08-06T01:23:37.304Z,3.80
2022-08-06T01:26:20.123Z,3.60
2022-08-06T01:28:55.977Z,3.60
2022-08-06T01:31:51.041Z,3.20
2022-08-06T01:34:31.326Z,4.20
2022-08-06T01:37:14.979Z,3.10
2022-08-06T01:39:54.095Z,3.50
2022-08-06T01:42:36.362Z,3.30
2022-08-06T01:45:10.114Z,3.60
2022-08-06T01:47:53.495Z,3.40
2022-08-06T01:50:46.408Z,3.80
2022-08-06T01:53:30.048Z,3.40
2022-08-06T01:56:11.329Z,3.60
2022-08-06T01:58:44.139Z,3.40
2022-08-06T02:01:16.299Z,3.20
2022-08-06T02:06:37.848Z,3.40
2022-08-06T02:09:23.099Z,3.50
2022-08-06T02:12:06.911Z,3.50
2022-08-06T02:14:48.394Z,4.00
2022-08-06T02:17:26.670Z,3.60
2022-08-06T02:20:18.511Z,3.90
2022-08-06T02:23:01.929Z,3.50
2022-08-06T02:25:34.728Z,3.60
2022-08-06T02:28:05.484Z,4.20
2022-08-06T02:30:42.414Z,3.70
2022-08-06T02:33:18.214Z,3.90
2022-08-06T02:35:52.570Z,3.20
2022-08-06T02:38:43.386Z,4.00
2022-08-06T02:41:55.831Z,3.90
2022-08-06T02:44:53.760Z,3.60
2022-08-06T02:48:02.087Z,3.90
2022-08-06T02:50:37.512Z,3.90
2022-08-06T02:53:24.848Z,4.10
2022-08-06T02:56:06.958Z,3.80
2022-08-06T02:58:57.020Z,3.70
2022-08-06T03:01:43.540Z,3.70
2022-08-06T03:04:14.665Z,3.30
2022-08-06T03:06:46.138Z,3.60
2022-08-06T03:09:17.444Z,3.50
2022-08-06T03:11:47.333Z,3.40
2022-08-06T03:14:38.682Z,3.60
2022-08-06T03:17:08.430Z,3.40
2022-08-06T03:19:58.228Z,3.50
2022-08-06T03:22:35.114Z,3.80
2022-08-06T03:25:08.778Z,4.20
2022-08-06T03:27:43.200Z,3.80
2022-08-06T03:30:31.619Z,4.10
2022-08-06T03:33:29.788Z,3.00
2022-08-06T03:36:01.311Z,3.30
2022-08-06T03:38:37.795Z,3.80
2022-08-06T03:41:07.897Z,3.80
2022-08-06T03:43:56.416Z,3.70
2022-08-06T03:46:47.244Z,4.10
2022-08-06T03:49:41.220Z,3.60
2022-08-06T03:52:25.084Z,4.20
2022-08-06T03:54:57.759Z,3.70
2022-08-06T03:57:40.395Z,4.10
2022-08-06T04:00:11.676Z,3.50
2022-08-06T04:02:47.834Z,3.60
2022-08-06T04:05:30.281Z,3.60
2022-08-06T04:08:05.066Z,3.60
2022-08-06T04:10:52.719Z,4.20
2022-08-06T04:14:03.841Z,4.00
2022-08-06T04:16:33.381Z,4.20
2022-08-06T04:19:09.232Z,4.30
2022-08-06T04:23:04.417Z,3.80
2022-08-06T04:24:29.951Z,3.90
2022-08-06T04:27:09.430Z,3.80
2022-08-06T04:29:56.290Z,3.40
2022-08-06T04:32:29.614Z,3.60
2022-08-06T04:36:07.149Z,3.80
2022-08-06T04:37:53.298Z,3.80
2022-08-06T04:40:34.750Z,3.70
2022-08-06T04:43:10.672Z,3.40
2022-08-06T04:46:17.423Z,4.20
2022-08-06T04:48:34.322Z,3.90
2022-08-06T04:51:10.511Z,4.60
2022-08-06T04:53:57.592Z,3.80
2022-08-06T04:56:25.016Z,3.70
2022-08-06T04:59:00.575Z,4.30
2022-08-06T05:01:27.698Z,3.70
2022-08-06T05:04:08.397Z,3.40
2022-08-06T05:07:02.363Z,4.10
2022-08-06T05:09:43.856Z,3.90
2022-08-06T05:12:22.966Z,3.90
2022-08-06T05:15:08.854Z,4.40
2022-08-06T05:17:48.656Z,3.90
2022-08-06T05:20:27.600Z,3.90
2022-08-06T05:23:03.751Z,4.20
2022-08-06T05:25:39.766Z,4.00
2022-08-06T05:28:19.717Z,4.10
2022-08-06T05:30:51.989Z,4.40
2022-08-06T05:33:31.560Z,5.00
2022-08-06T05:36:02.866Z,4.40
2022-08-06T05:38:38.779Z,3.50
2022-08-06T05:41:19.838Z,4.30
2022-08-06T05:43:58.907Z,4.10
2022-08-06T05:46:35.004Z,3.80
2022-08-06T05:49:56.170Z,3.30
2022-08-06T05:52:18.048Z,3.40
2022-08-06T05:55:16.725Z,3.20
2022-08-06T05:57:58.191Z,3.50
2022-08-06T06:00:43.112Z,3.90
2022-08-06T06:03:24.497Z,4.00
2022-08-06T06:06:05.628Z,3.50
2022-08-06T06:08:40.202Z,3.90
2022-08-06T06:11:59.270Z,3.80
2022-08-06T06:14:36.758Z,3.90
2022-08-06T06:17:23.246Z,3.90
2022-08-06T06:20:58.580Z,4.20
2022-08-06T06:23:26.567Z,7.10
2022-08-06T06:26:35.235Z,7.50
2022-08-06T06:30:10.668Z,7.20
2022-08-06T06:33:15.783Z,5.90
2022-08-06T06:35:55.486Z,5.60
2022-08-06T06:38:51.811Z,6.40
2022-08-06T06:41:44.702Z,6.10
2022-08-06T06:45:03.515Z,6.50
2022-08-06T06:47:28.391Z,5.90
2022-08-06T06:50:12.220Z,6.10
2022-08-06T06:52:43.436Z,6.90
2022-08-06T06:55:51.983Z,6.50
2022-08-06T06:58:33.104Z,7.20
2022-08-06T07:03:50.202Z,4.70
2022-08-06T07:06:31.267Z,5.80
2022-08-06T07:09:12.433Z,5.60
2022-08-06T07:12:02.338Z,5.60
2022-08-06T07:14:35.483Z,5.10
2022-08-06T07:17:44.785Z,5.10
2022-08-06T07:19:57.119Z,4.90
2022-08-06T07:22:27.383Z,4.60
2022-08-06T07:25:02.364Z,4.80
2022-08-06T07:27:41.789Z,5.90
2022-08-06T07:30:16.104Z,5.10
2022-08-06T07:32:48.493Z,5.50
2022-08-06T07:35:20.019Z,5.20
2022-08-06T07:37:55.467Z,6.60
2022-08-06T07:40:39.262Z,6.10
2022-08-06T07:43:38.734Z,5.40
2022-08-06T07:46:10.851Z,5.70
2022-08-06T07:48:52.887Z,5.00
2022-08-06T07:51:33.535Z,5.40
2022-08-06T07:54:09.454Z,5.70
2022-08-06T07:57:00.702Z,6.10
2022-08-06T07:59:30.536Z,5.70
2022-08-06T08:02:01.071Z,5.40
2022-08-06T08:04:52.064Z,5.20
2022-08-06T08:07:38.006Z,4.80
2022-08-06T08:10:15.320Z,5.80
2022-08-06T08:12:44.613Z,5.70
2022-08-06T08:15:17.984Z,6.70
2022-08-06T08:17:46.557Z,6.10
2022-08-06T08:20:25.185Z,5.30
2022-08-06T08:23:03.115Z,5.90
2022-08-06T08:25:40.021Z,5.30
2022-08-06T08:28:14.880Z,5.80
2022-08-06T08:30:48.087Z,6.90
2022-08-06T08:33:21.263Z,6.50
2022-08-06T08:35:59.809Z,6.90
2022-08-06T08:38:29.985Z,9.30
2022-08-06T08:41:01.215Z,6.30
2022-08-06T08:43:59.285Z,7.10
2022-08-06T08:46:31.005Z,7.10
2022-08-06T08:49:05.532Z,7.30
2022-08-06T08:51:42.826Z,6.40
2022-08-06T08:54:17.451Z,5.70
2022-08-06T08:57:10.867Z,4.80
2022-08-06T08:59:59.546Z,6.50
2022-08-06T09:02:25.583Z,5.50
2022-08-06T09:04:54.533Z,6.10
2022-08-06T09:07:36.803Z,5.70
2022-08-06T09:10:09.099Z,5.20
2022-08-06T09:12:45.142Z,5.40
2022-08-06T09:15:17.802Z,5.40
2022-08-06T09:18:11.637Z,5.30
2022-08-06T09:20:36.928Z,6.20
2022-08-06T09:23:07.294Z,5.40
2022-08-06T09:25:49.853Z,6.00
2022-08-06T09:28:45.277Z,5.30
2022-08-06T09:31:22.058Z,5.00
2022-08-06T09:34:29.833Z,5.00
2022-08-06T09:36:52.388Z,5.90
2022-08-06T09:39:46.070Z,5.10
2022-08-06T09:42:48.941Z,5.60
2022-08-06T09:45:42.821Z,5.00
2022-08-06T09:48:17.800Z,4.80
2022-08-06T09:50:50.908Z,4.40
2022-08-06T09:53:21.637Z,4.80
2022-08-06T09:55:58.138Z,4.20
2022-08-06T09:58:35.606Z,4.40
2022-08-06T10:01:22.650Z,4.20
2022-08-06T10:04:02.290Z,4.00
2022-08-06T10:06:32.810Z,4.80
2022-08-06T10:09:11.910Z,4.70
2022-08-06T10:11:49.646Z,4.40
2022-08-06T10:14:33.526Z,4.00
2022-08-06T10:17:10.952Z,4.60
2022-08-06T10:19:51.921Z,4.00
2022-08-06T10:22:21.707Z,4.40
2022-08-06T10:24:54.074Z,4.00
2022-08-06T10:27:36.439Z,4.10
2022-08-06T10:30:10.859Z,4.10
2022-08-06T10:32:53.728Z,3.90
2022-08-06T10:35:25.613Z,4.20
2022-08-06T10:38:14.597Z,4.50
2022-08-06T10:40:57.141Z,4.50
2022-08-06T10:43:34.363Z,3.70
2022-08-06T10:46:07.749Z,3.60
2022-08-06T10:50:19.880Z,3.40
2022-08-06T10:51:56.661Z,4.00
2022-08-06T10:54:19.059Z,3.80
2022-08-06T10:59:19.489Z,3.70
2022-08-06T11:02:56.858Z,4.10
2022-08-06T11:05:42.661Z,4.00
2022-08-06T11:09:00.066Z,4.10
2022-08-06T11:11:39.660Z,3.60
2022-08-06T11:14:18.435Z,3.80
2022-08-06T11:17:00.733Z,3.50
2022-08-06T11:19:56.815Z,4.20
2022-08-06T11:22:54.067Z,3.90
2022-08-06T11:25:41.663Z,4.10
2022-08-06T11:28:14.711Z,4.10
2022-08-06T11:30:48.119Z,3.80
2022-08-06T11:33:20.141Z,3.90
2022-08-06T11:35:54.534Z,3.70
2022-08-06T11:38:48.736Z,3.70
2022-08-06T11:41:54.751Z,3.80
2022-08-06T11:44:21.484Z,3.30
2022-08-06T11:47:13.858Z,3.50
2022-08-06T11:49:47.865Z,3.40
2022-08-06T11:52:41.095Z,3.70
2022-08-06T11:55:23.011Z,3.20
2022-08-06T11:58:20.791Z,3.70
2022-08-06T12:01:03.311Z,3.70
2022-08-06T12:03:49.091Z,4.00
2022-08-06T12:06:26.004Z,3.70
2022-08-06T12:09:22.861Z,3.70
2022-08-06T12:12:27.856Z,3.80
2022-08-06T12:15:24.235Z,4.00
2022-08-06T12:18:20.545Z,3.50
2022-08-06T12:20:56.180Z,3.60
2022-08-06T12:23:53.846Z,3.80
2022-08-06T12:26:12.223Z,3.90
2022-08-06T12:28:40.060Z,3.50
2022-08-06T12:31:35.790Z,3.70
2022-08-06T12:33:54.148Z,3.90
2022-08-06T12:36:32.105Z,3.70
2022-08-06T12:39:10.713Z,3.90
2022-08-06T12:41:47.428Z,3.40
2022-08-06T12:44:20.195Z,4.10
2022-08-06T12:47:13.615Z,3.20
2022-08-06T12:49:43.852Z,3.10
2022-08-06T12:52:17.731Z,3.30
2022-08-06T12:54:45.264Z,3.30
2022-08-06T12:57:28.557Z,3.10
2022-08-06T13:00:15.363Z,2.90
2022-08-06T13:02:46.347Z,2.90
2022-08-06T13:05:15.146Z,3.20
2022-08-06T13:07:44.465Z,2.70
2022-08-06T13:10:33.392Z,3.50
2022-08-06T13:14:14.086Z,3.60
2022-08-06T13:16:04.495Z,3.60
2022-08-06T13:18:46.720Z,3.50
2022-08-06T13:21:22.390Z,3.80
2022-08-06T13:23:53.683Z,3.40
2022-08-06T13:26:28.064Z,3.40
2022-08-06T13:30:34.536Z,3.10
2022-08-06T13:32:19.304Z,3.10
2022-08-06T13:34:57.821Z,3.80
2022-08-06T13:38:06.083Z,3.70
2022-08-06T13:40:51.359Z,3.90
2022-08-06T13:43:42.819Z,3.20
2022-08-06T13:46:20.158Z,3.20
2022-08-06T13:48:58.825Z,3.50
2022-08-06T13:51:28.776Z,3.30
2022-08-06T13:53:58.557Z,3.40
2022-08-06T13:56:28.166Z,3.50
2022-08-06T13:58:58.828Z,4.30
2022-08-06T14:01:34.862Z,3.40
2022-08-06T14:04:18.347Z,3.60
2022-08-06T14:06:48.389Z,3.60
2022-08-06T14:09:20.695Z,4.00
2022-08-06T14:11:56.874Z,3.60
2022-08-06T14:14:28.942Z,4.00
2022-08-06T14:16:58.478Z,3.70
2022-08-06T14:20:14.184Z,3.70
2022-08-06T14:22:14.150Z,4.10
2022-08-06T14:24:41.201Z,3.60
2022-08-06T14:27:23.838Z,3.60
2022-08-06T14:30:26.688Z,4.20
2022-08-06T14:32:40.572Z,4.10
2022-08-06T14:35:10.144Z,4.10
2022-08-06T14:37:51.894Z,3.50
2022-08-06T14:41:02.054Z,3.40
2022-08-06T14:43:56.600Z,3.60
2022-08-06T14:46:31.048Z,3.60
2022-08-06T14:49:09.066Z,4.00
2022-08-06T14:52:19.740Z,4.20
2022-08-06T14:54:32.342Z,4.00
2022-08-06T14:57:14.978Z,3.30
2022-08-06T14:59:48.831Z,4.00
2022-08-06T15:02:25.023Z,3.60
2022-08-06T15:04:54.903Z,3.60
2022-08-06T15:07:25.752Z,3.30
2022-08-06T15:10:04.245Z,3.40
2022-08-06T15:12:49.708Z,3.80
2022-08-06T15:15:26.898Z,3.50
2022-08-06T15:18:04.340Z,3.50
2022-08-06T15:20:41.503Z,3.90
2022-08-06T15:23:09.063Z,3.70
2022-08-06T15:26:00.156Z,4.00
2022-08-06T15:28:24.767Z,3.90
2022-08-06T15:30:52.430Z,3.50
2022-08-06T15:33:21.156Z,4.30
2022-08-06T15:35:57.123Z,3.60
2022-08-06T15:38:27.537Z,3.80
2022-08-06T15:40:56.126Z,3.80
2022-08-06T15:43:27.229Z,4.00
2022-08-06T15:45:58.207Z,4.20
2022-08-06T15:48:30.492Z,3.70
2022-08-06T15:51:28.594Z,4.00
2022-08-06T15:53:54.093Z,4.20
2022-08-06T15:56:33.360Z,4.40
2022-08-06T15:59:06.048Z,4.30
2022-08-06T16:02:01.663Z,4.10
2022-08-06T16:04:25.331Z,5.20
2022-08-06T16:06:56.070Z,3.90
2022-08-06T16:09:28.037Z,4.40
2022-08-06T16:11:58.583Z,3.80
2022-08-06T16:14:33.195Z,4.00
2022-08-06T16:17:10.104Z,4.20
2022-08-06T16:19:48.636Z,4.30
2022-08-06T16:22:18.505Z,4.30
2022-08-06T16:24:45.870Z,4.30
2022-08-06T16:27:14.875Z,4.10
2022-08-06T16:29:48.304Z,4.20
2022-08-06T16:32:21.311Z,4.40
2022-08-06T16:35:00.906Z,4.80
2022-08-06T16:37:32.598Z,5.10
2022-08-06T16:40:09.029Z,6.60
2022-08-06T16:42:37.589Z,4.80
2022-08-06T16:45:11.497Z,4.60
2022-08-06T16:48:20.946Z,4.80
2022-08-06T16:50:42.671Z,5.10
2022-08-06T16:54:12.714Z,4.40
2022-08-06T16:55:57.991Z,4.40
2022-08-06T17:02:15.261Z,3.70
2022-08-06T17:04:03.152Z,4.00
2022-08-06T17:06:31.419Z,4.00
2022-08-06T17:09:16.312Z,3.90
2022-08-06T17:11:58.261Z,4.10
2022-08-06T17:14:32.212Z,4.30
2022-08-06T17:17:05.439Z,4.50
2022-08-06T17:19:37.030Z,4.50
2022-08-06T17:22:06.513Z,4.10
2022-08-06T17:24:37.785Z,4.30
2022-08-06T17:27:15.182Z,4.00
2022-08-06T17:29:49.224Z,4.30
2022-08-06T17:32:29.985Z,3.80
2022-08-06T17:35:10.467Z,4.20
2022-08-06T17:37:44.235Z,3.90
2022-08-06T17:40:19.398Z,4.20
2022-08-06T17:43:12.212Z,4.50
2022-08-06T17:45:52.320Z,4.40
2022-08-06T17:48:31.119Z,4.30
2022-08-06T17:50:59.479Z,5.00
2022-08-06T17:53:53.593Z,3.70
2022-08-06T17:56:29.411Z,4.70
2022-08-06T17:59:17.978Z,4.40
2022-08-06T18:01:50.302Z,4.60
2022-08-06T18:04:21.921Z,5.70
2022-08-06T18:06:56.932Z,5.20
2022-08-06T18:10:09.313Z,5.70
2022-08-06T18:12:13.763Z,6.10
2022-08-06T18:14:42.858Z,5.60
2022-08-06T18:17:19.944Z,6.00
2022-08-06T18:19:47.093Z,5.40
2022-08-06T18:22:23.217Z,5.10
2022-08-06T18:24:55.428Z,5.30
2022-08-06T18:27:54.101Z,6.00
2022-08-06T18:30:36.752Z,6.60
2022-08-06T18:33:08.170Z,6.30
2022-08-06T18:35:55.881Z,6.40
2022-08-06T18:38:31.952Z,6.50
2022-08-06T18:41:06.077Z,6.00
2022-08-06T18:43:55.247Z,5.60
2022-08-06T18:47:02.261Z,5.70
2022-08-06T18:49:27.099Z,5.30
2022-08-06T18:52:00.899Z,5.60
2022-08-06T18:54:28.504Z,6.00
2022-08-06T18:56:57.910Z,5.80
2022-08-06T18:59:29.689Z,6.30
2022-08-06T19:02:00.578Z,7.20
2022-08-06T19:04:29.954Z,8.10
2022-08-06T19:07:06.012Z,8.40
2022-08-06T19:09:36.498Z,7.40
2022-08-06T19:12:12.964Z,5.50
2022-08-06T19:14:48.689Z,6.00
2022-08-06T19:17:47.798Z,5.80
2022-08-06T19:20:20.459Z,6.50
2022-08-06T19:22:53.068Z,5.20
2022-08-06T19:25:28.719Z,5.90
2022-08-06T19:28:35.329Z,6.10
2022-08-06T19:31:00.099Z,5.80
2022-08-06T19:33:27.453Z,6.40
2022-08-06T19:36:06.954Z,5.70
2022-08-06T19:38:39.573Z,6.50
2022-08-06T19:41:09.998Z,5.40
2022-08-06T19:44:25.846Z,5.50
2022-08-06T19:46:34.855Z,5.90
2022-08-06T19:49:04.469Z,5.80
2022-08-06T19:52:02.481Z,5.00
2022-08-06T19:54:26.327Z,5.80
2022-08-06T19:57:08.147Z,5.50
2022-08-06T20:00:52.275Z,6.90
2022-08-06T20:02:26.133Z,5.70
2022-08-06T20:04:56.382Z,6.30
2022-08-06T20:07:27.624Z,6.40
2022-08-06T20:09:59.963Z,7.20
2022-08-06T20:12:34.757Z,6.40
2022-08-06T20:15:06.040Z,6.00
2022-08-06T20:17:49.201Z,5.80
2022-08-06T20:20:29.240Z,6.10
2022-08-06T20:23:11.364Z,6.60
2022-08-06T20:26:09.541Z,6.00
2022-08-06T20:29:10.301Z,6.00
2022-08-06T20:31:21.825Z,6.80
2022-08-06T20:33:59.027Z,6.40
2022-08-06T20:36:32.005Z,5.90
2022-08-06T20:39:01.498Z,6.40
2022-08-06T20:42:02.165Z,5.70
2022-08-06T20:44:19.843Z,6.10
2022-08-06T20:47:45.723Z,5.70
2022-08-06T20:50:02.309Z,5.70
2022-08-06T20:52:24.547Z,6.40
2022-08-06T20:54:52.994Z,5.80
2022-08-06T20:57:27.772Z,6.00
2022-08-06T20:59:57.260Z,5.50
2022-08-06T21:02:25.896Z,5.80
2022-08-06T21:05:16.643Z,6.40
2022-08-06T21:07:57.370Z,5.90
2022-08-06T21:10:31.668Z,6.40
2022-08-06T21:13:02.487Z,7.10
2022-08-06T21:15:55.009Z,6.70
2022-08-06T21:18:22.095Z,6.60
2022-08-06T21:20:55.568Z,7.30
2022-08-06T21:23:42.163Z,6.90
2022-08-06T21:26:11.570Z,7.30
2022-08-06T21:28:54.609Z,7.10
2022-08-06T21:31:25.237Z,7.10
2022-08-06T21:33:56.486Z,7.00
2022-08-06T21:36:26.030Z,7.00
2022-08-06T21:38:57.282Z,7.20
2022-08-06T21:41:29.971Z,7.30
2022-08-06T21:44:15.627Z,6.90
2022-08-06T21:46:49.879Z,6.50
2022-08-06T21:49:21.597Z,7.00
2022-08-06T21:52:05.013Z,7.20
2022-08-06T21:54:32.158Z,6.80
2022-08-06T21:57:02.116Z,7.50
2022-08-06T21:59:46.394Z,7.60
2022-08-06T22:02:21.543Z,7.20
2022-08-06T22:05:00.084Z,7.00
2022-08-06T22:08:04.691Z,6.90
2022-08-06T22:10:28.976Z,7.90
2022-08-06T22:13:13.301Z,7.80
2022-08-06T22:15:47.062Z,6.90
2022-08-06T22:18:18.892Z,7.60
2022-08-06T22:21:00.100Z,7.20
2022-08-06T22:23:29.698Z,7.10
2022-08-06T22:26:01.386Z,7.50
2022-08-06T22:28:33.788Z,7.10
2022-08-06T22:31:08.121Z,8.40
2022-08-06T22:33:58.480Z,8.60
2022-08-06T22:36:34.469Z,8.00
2022-08-06T22:39:05.329Z,7.60
2022-08-06T22:41:42.919Z,7.90
2022-08-06T22:44:34.379Z,9.10
2022-08-06T22:47:06.631Z,8.80
2022-08-06T22:50:00.390Z,9.40
2022-08-06T22:52:44.940Z,9.40
2022-08-06T22:55:18.050Z,9.60
2022-08-06T22:58:47.692Z,10.20
2022-08-06T23:00:37.421Z,11.00
2022-08-06T23:03:13.387Z,12.00
2022-08-06T23:05:44.266Z,9.90
2022-08-06T23:08:13.202Z,11.00
2022-08-06T23:10:48.238Z,11.10
2022-08-06T23:13:25.423Z,12.00
2022-08-06T23:15:58.371Z,10.70
2022-08-06T23:18:30.105Z,11.00
2022-08-06T23:21:20.513Z,11.10
2022-08-06T23:23:54.521Z,11.50
2022-08-06T23:26:32.031Z,12.60
2022-08-06T23:29:08.857Z,14.20
2022-08-06T23:31:38.369Z,13.10
2022-08-06T23:34:34.361Z,11.80
2022-08-06T23:36:58.188Z,11.20
2022-08-06T23:39:29.117Z,10.70
2022-08-06T23:42:14.411Z,11.90
2022-08-06T23:44:51.561Z,10.40
2022-08-06T23:47:53.804Z,11.30
2022-08-06T23:50:09.647Z,10.30
2022-08-06T23:52:41.754Z,11.30
2022-08-06T23:55:26.154Z,12.80
2022-08-06T23:58:00.586Z,11.90
